• pl
  • eng

Awiacja
Komunikaty METAR z lotnisk wojskowych. 23:01 16.12.2018

METAR EPCE 162230Z 18003KT 9999 OVC029 M02/M04
Q1017 RMK M019 087 8/8 =

METAR EPDA 162230Z 18004KT 110V210 9999 OVC029 M00/M04
Q1017 RMK M005 079 8/8 =

METAR EPDE 162230Z AUTO 11002KT 7000 VV017 M02/M03 Q1020 RMK M020 090
///=

METAR EPIR 162230Z NIL=

METAR EPKS 162230Z 11007KT 9999 SCT030 BKN160 M03/M05 Q1017 RMK M028
088 7/3=

METAR EPLK 162230Z NIL=

METAR EPLY 162230Z NIL=

METAR EPMB 162230Z 18006KT 8000 SCT015 OVC030 M01/M02 Q1019
RMK M009 092 8/4=

METAR EPMI 162230Z NIL=

METAR EPMM 162230Z 15004KT 120V190 9999 OVC025 M02/M03 Q1020 RMK
M020 091 8/8=

METAR EPNA 162230Z NIL=

METAR EPOK 162230Z 19005KT 9999 OVC032 M01/M03
Q1018 RMK M008 087 8/8 =

METAR EPPR 162230Z NIL=

METAR EPPW 162230Z 12006KT 5000 BR BKN024 M03/M05 Q1017 RMK M026 088
7/7=

METAR EPRA 162230Z 15004KT 6000 BKN025 M05/M06 Q1020 RMK M054 096
7/7=

METAR EPSN 162230Z NIL=

METAR EPTM 162230Z NIL=
 METAR EPLY
:Brak depeszy METAR z EPLY Łęczyca z dnia 16 z godziny 22:30 UTC
Awiacja.imgw.pl jest pogodowym serwisem informacyjnym
Instytutu Meteorologii i Gospodarki Wodnej Państwowego Instytutu Badawczego.
Copyright IMGW PIB 2009-2011© Wszelkie prawa zastrzeżone.